Time;durP1;ratioP1;P1;durP2;ratioP2;P2;SDS_P1;SDS_P2;PMS_P1;PMS_P2;Temp;Humidity;BMP_temperature;BMP_pressure;BME280_temperature;BME280_humidity;BME280_pressure;Samples;Min_cycle;Max_cycle;Signal;HPM_P1;HPM_P2
2023/09/16 00:01:48;;;;;;;7.38;4.18;;;;;;;16.36;78.81;100977.94;7384129;19;20352;-77
2023/09/16 00:04:15;;;;;;;6.63;4.30;;;;;;;16.35;79.11;100976.31;7382443;19;21033;-77
2023/09/16 00:06:42;;;;;;;7.30;4.30;;;;;;;16.33;79.08;100978.38;7382721;19;20424;-78
2023/09/16 00:09:09;;;;;;;5.70;3.92;;;;;;;16.30;79.11;100969.72;7383139;19;20797;-78
2023/09/16 00:11:36;;;;;;;6.33;3.83;;;;;;;16.25;79.22;100976.72;7376950;19;20355;-78
2023/09/16 00:14:03;;;;;;;4.93;3.75;;;;;;;16.21;79.49;100976.28;7380040;19;20369;-78
2023/09/16 00:16:30;;;;;;;5.30;4.00;;;;;;;16.22;79.24;100967.25;7383430;19;20364;-77
2023/09/16 00:18:57;;;;;;;6.85;4.03;;;;;;;16.22;79.41;100971.78;7384711;19;20344;-78
2023/09/16 00:21:24;;;;;;;7.57;3.77;;;;;;;16.18;79.45;100965.19;7380325;19;20401;-78
2023/09/16 00:23:52;;;;;;;6.85;3.80;;;;;;;16.16;79.52;100964.56;7382963;19;20380;-78
2023/09/16 00:26:19;;;;;;;5.13;3.83;;;;;;;16.12;79.58;100960.66;7384197;19;20452;-78
2023/09/16 00:28:47;;;;;;;6.82;4.30;;;;;;;16.08;79.44;100957.56;7381089;19;20685;-78
2023/09/16 00:31:15;;;;;;;7.80;3.97;;;;;;;16.07;79.72;100956.75;7375769;19;20364;-78
2023/09/16 00:33:41;;;;;;;6.07;3.72;;;;;;;16.09;80.03;100956.56;7377531;19;20901;-78
2023/09/16 00:36:08;;;;;;;7.03;3.97;;;;;;;16.08;79.96;100960.25;7381623;19;20384;-78
2023/09/16 00:38:35;;;;;;;5.88;3.38;;;;;;;16.07;79.91;100955.94;7377665;19;20364;-78
2023/09/16 00:41:03;;;;;;;6.40;3.75;;;;;;;16.04;79.97;100956.31;7379584;19;20361;-78
2023/09/16 00:43:29;;;;;;;6.28;3.75;;;;;;;16.02;79.96;100958.38;7384637;19;20693;-78
2023/09/16 00:45:57;;;;;;;4.60;3.38;;;;;;;16.01;79.96;100954.06;7381359;19;20356;-78
2023/09/16 00:48:24;;;;;;;6.28;3.60;;;;;;;16.02;80.11;100953.88;7378189;19;20357;-78
2023/09/16 00:50:51;;;;;;;5.43;3.70;;;;;;;16.01;80.31;100956.75;7379536;19;20374;-78
2023/09/16 00:53:19;;;;;;;5.72;3.58;;;;;;;16.02;80.36;100951.19;7379491;19;21311;-78
2023/09/16 00:55:48;;;;;;;5.83;3.43;;;;;;;16.03;79.99;100947.47;7378561;19;20364;-78
2023/09/16 00:58:17;;;;;;;5.50;3.63;;;;;;;16.04;80.34;100942.94;7377682;19;20889;-78
2023/09/16 01:00:47;;;;;;;6.67;4.03;;;;;;;16.04;79.76;100942.94;7379841;19;20925;-78
2023/09/16 01:03:16;;;;;;;6.60;3.50;;;;;;;16.00;79.72;100939.88;7381668;19;20382;-78
2023/09/16 01:05:46;;;;;;;5.13;3.60;;;;;;;15.94;79.62;100943.38;7381056;19;20353;-78
2023/09/16 01:08:13;;;;;;;4.70;3.35;;;;;;;15.91;79.79;100938.41;7381680;19;20367;-78
2023/09/16 01:10:40;;;;;;;4.90;3.47;;;;;;;15.86;79.86;100928.31;7371197;19;20431;-78
2023/09/16 01:13:08;;;;;;;4.32;3.60;;;;;;;15.83;79.76;100934.09;7375608;19;20407;-78
2023/09/16 01:15:41;;;;;;;5.97;3.75;;;;;;;15.80;79.99;100939.00;7380848;19;20364;-78
2023/09/16 01:18:24;;;;;;;5.32;3.70;;;;;;;15.76;80.09;100946.63;7380475;19;20716;-79
2023/09/16 01:20:55;;;;;;;5.10;3.70;;;;;;;15.74;80.17;100939.81;7381140;19;21043;-78
2023/09/16 01:23:22;;;;;;;5.00;3.70;;;;;;;15.70;80.35;100939.38;7380314;19;20863;-78
2023/09/16 01:25:49;;;;;;;5.63;3.60;;;;;;;15.68;80.34;100944.09;7380273;19;20360;-78
2023/09/16 01:28:16;;;;;;;4.97;3.45;;;;;;;15.70;80.50;100947.38;7374062;19;20340;-78
2023/09/16 01:30:47;;;;;;;6.22;3.60;;;;;;;15.73;80.57;100946.22;7375870;19;20360;-78
2023/09/16 01:33:32;;;;;;;4.95;3.25;;;;;;;15.73;80.23;100948.88;7375555;19;20373;-78
2023/09/16 01:36:04;;;;;;;8.32;3.95;;;;;;;15.69;80.04;100943.91;7377790;19;20337;-78
2023/09/16 01:38:33;;;;;;;4.07;3.42;;;;;;;15.71;80.17;100943.69;7378420;19;21296;-78
2023/09/16 01:41:02;;;;;;;4.80;3.43;;;;;;;15.69;79.82;100940.41;7376358;19;20411;-78
2023/09/16 01:43:29;;;;;;;4.60;3.30;;;;;;;15.67;79.92;100937.09;7377031;19;20828;-78
2023/09/16 01:45:56;;;;;;;5.22;3.40;;;;;;;15.65;80.23;100931.13;7378445;19;20368;-78
2023/09/16 01:48:23;;;;;;;5.97;3.95;;;;;;;15.64;80.34;100933.00;7379464;19;20360;-78
2023/09/16 01:51:09;;;;;;;5.83;3.50;;;;;;;15.64;80.41;100926.78;7375189;19;20351;-78
2023/09/16 01:53:36;;;;;;;5.53;3.58;;;;;;;15.63;80.33;100925.16;7374060;19;20372;-78
2023/09/16 01:56:03;;;;;;;6.17;3.40;;;;;;;15.63;80.29;100930.50;7378583;19;20912;-78
2023/09/16 01:58:31;;;;;;;5.67;3.13;;;;;;;15.61;80.04;100927.22;7377936;19;20361;-78
2023/09/16 02:00:57;;;;;;;5.53;3.43;;;;;;;15.58;80.24;100924.97;7377797;19;20450;-78
2023/09/16 02:03:24;;;;;;;4.40;3.50;;;;;;;15.55;80.14;100922.69;7377938;19;20734;-78
2023/09/16 02:05:51;;;;;;;5.20;3.60;;;;;;;15.54;80.27;100921.84;7375624;19;20897;-78
2023/09/16 02:08:18;;;;;;;4.82;3.22;;;;;;;15.53;80.24;100933.56;7380641;19;20357;-78
2023/09/16 02:10:45;;;;;;;5.43;3.47;;;;;;;15.54;80.71;100924.53;7377469;19;20374;-78
2023/09/16 02:13:12;;;;;;;4.78;3.53;;;;;;;15.56;80.56;100932.34;7380949;19;20364;-78
2023/09/16 02:15:39;;;;;;;6.68;4.82;;;;;;;15.53;80.55;100930.06;7386200;19;20406;-79
2023/09/16 02:18:11;;;;;;;5.60;3.80;;;;;;;15.54;80.69;100929.88;7383923;19;23269;-78
2023/09/16 02:20:38;;;;;;;6.50;4.28;;;;;;;15.51;80.27;100919.56;7383154;19;20375;-78
2023/09/16 02:23:05;;;;;;;6.35;3.92;;;;;;;15.49;80.24;100925.16;7381877;19;20908;-78
2023/09/16 02:25:33;;;;;;;10.13;3.92;;;;;;;15.49;80.23;100921.63;7386882;19;20349;-78
2023/09/16 02:28:00;;;;;;;6.43;3.63;;;;;;;15.46;80.07;100924.72;7383381;19;20428;-78
2023/09/16 02:30:27;;;;;;;5.70;3.67;;;;;;;15.43;80.37;100925.94;7381282;19;20371;-78
2023/09/16 02:32:54;;;;;;;5.78;3.40;;;;;;;15.44;80.48;100922.22;7382366;19;20360;-78
2023/09/16 02:35:21;;;;;;;4.55;3.53;;;;;;;15.43;80.35;100920.59;7387404;19;20378;-78
2023/09/16 02:37:48;;;;;;;5.75;3.78;;;;;;;15.42;80.62;100921.59;7387474;19;20379;-78
2023/09/16 02:40:15;;;;;;;4.57;3.70;;;;;;;15.39;80.45;100923.88;7384235;19;20360;-78
2023/09/16 02:42:42;;;;;;;7.75;3.72;;;;;;;15.37;80.65;100921.41;7384462;19;20873;-78
2023/09/16 02:45:10;;;;;;;5.93;3.65;;;;;;;15.37;80.56;100917.91;7385364;19;20364;-79
2023/09/16 02:47:37;;;;;;;5.47;3.50;;;;;;;15.35;80.91;100918.09;7381712;19;20671;-78
2023/09/16 02:50:04;;;;;;;4.57;3.20;;;;;;;15.35;81.04;100923.44;7378785;19;20360;-78
2023/09/16 02:52:31;;;;;;;5.60;3.57;;;;;;;15.31;80.86;100919.53;7380308;19;20352;-78
2023/09/16 02:54:58;;;;;;;9.50;3.58;;;;;;;15.29;80.74;100913.56;7385508;19;20448;-78
2023/09/16 02:57:25;;;;;;;5.07;3.83;;;;;;;15.26;80.83;100913.97;7385981;19;20420;-78
2023/09/16 02:59:52;;;;;;;5.18;3.53;;;;;;;15.25;81.30;100917.66;7382178;19;20395;-78
2023/09/16 03:02:20;;;;;;;5.03;3.33;;;;;;;15.25;81.50;100909.63;7381542;19;20355;-78
2023/09/16 03:04:47;;;;;;;5.45;3.42;;;;;;;15.25;81.38;100913.13;7386738;19;20471;-78
2023/09/16 03:07:14;;;;;;;6.55;3.85;;;;;;;15.24;81.20;100911.50;7380810;19;20380;-79
2023/09/16 03:09:41;;;;;;;6.13;3.55;;;;;;;15.25;81.22;100917.66;7381778;19;20349;-79
2023/09/16 03:12:10;;;;;;;5.78;3.72;;;;;;;15.26;81.67;100914.78;7382866;19;20352;-78
2023/09/16 03:14:37;;;;;;;5.33;3.90;;;;;;;15.25;81.40;100910.44;7385919;19;20947;-78
2023/09/16 03:17:04;;;;;;;7.38;4.28;;;;;;;15.27;81.37;100912.94;7381288;19;20369;-78
2023/09/16 03:19:33;;;;;;;5.60;3.93;;;;;;;15.26;81.38;100914.78;7384173;19;20356;-78
2023/09/16 03:22:00;;;;;;;10.47;4.40;;;;;;;15.25;81.32;100912.31;7383880;19;20382;-78
2023/09/16 03:24:27;;;;;;;5.60;4.07;;;;;;;15.25;81.38;100906.97;7380959;19;20368;-79
2023/09/16 03:26:54;;;;;;;6.23;3.77;;;;;;;15.22;81.35;100913.53;7382457;19;20444;-79
2023/09/16 03:29:21;;;;;;;14.57;4.37;;;;;;;15.18;81.35;100909.63;7384033;19;20372;-78
2023/09/16 03:31:48;;;;;;;5.75;3.90;;;;;;;15.14;81.57;100911.03;7382052;19;20394;-79
2023/09/16 03:34:18;;;;;;;5.50;4.05;;;;;;;15.12;81.57;100897.06;7384382;19;20849;-78
2023/09/16 03:36:45;;;;;;;6.00;4.00;;;;;;;15.09;81.55;100892.94;7379279;19;20372;-78
2023/09/16 03:39:12;;;;;;;5.65;4.20;;;;;;;15.08;81.68;100891.28;7384425;19;20435;-78
2023/09/16 03:41:39;;;;;;;6.22;4.47;;;;;;;15.06;81.75;100897.84;7384366;19;20364;-78
2023/09/16 03:44:07;;;;;;;6.75;4.35;;;;;;;15.02;81.97;100902.75;7371450;19;20738;-78
2023/09/16 03:46:35;;;;;;;7.53;4.40;;;;;;;14.99;82.01;100892.47;7372857;19;20856;-78
2023/09/16 03:49:05;;;;;;;6.40;4.70;;;;;;;14.99;82.19;100889.81;7373344;19;20755;-78
2023/09/16 03:51:37;;;;;;;7.45;4.65;;;;;;;15.01;82.25;100893.09;7379660;19;20376;-78
2023/09/16 03:54:06;;;;;;;9.30;4.47;;;;;;;15.01;82.30;100893.09;7378073;19;20360;-78
2023/09/16 03:56:34;;;;;;;7.13;4.80;;;;;;;15.00;82.28;100895.97;7378362;19;20394;-78
2023/09/16 03:59:01;;;;;;;6.30;4.40;;;;;;;14.99;82.55;100892.47;7382976;19;20383;-78
2023/09/16 04:01:28;;;;;;;6.22;4.30;;;;;;;14.99;82.36;100895.16;7381346;19;20376;-78
2023/09/16 04:03:55;;;;;;;6.35;4.13;;;;;;;15.01;82.35;100884.28;7376933;19;20466;-78
2023/09/16 04:06:23;;;;;;;6.68;4.68;;;;;;;15.00;82.62;100878.13;7379961;19;20352;-78
2023/09/16 04:08:50;;;;;;;6.70;4.38;;;;;;;14.99;82.35;100881.78;7381642;19;20892;-78
2023/09/16 04:11:17;;;;;;;7.60;4.68;;;;;;;14.98;82.27;100874.81;7380654;19;20443;-78
2023/09/16 04:13:44;;;;;;;7.22;4.32;;;;;;;14.96;82.29;100876.00;7377699;19;20348;-78
2023/09/16 04:16:11;;;;;;;5.95;4.38;;;;;;;14.93;82.22;100876.44;7380057;19;20403;-78
2023/09/16 04:18:38;;;;;;;6.15;4.43;;;;;;;14.92;82.55;100875.59;7383871;19;20407;-78
2023/09/16 04:21:06;;;;;;;6.63;4.63;;;;;;;14.92;82.66;100875.59;7380778;19;20411;-78
2023/09/16 04:23:35;;;;;;;7.07;4.28;;;;;;;14.92;82.26;100875.59;7379539;19;20411;-78
2023/09/16 04:26:05;;;;;;;8.75;4.90;;;;;;;14.89;82.57;100871.47;7377662;19;20920;-78
2023/09/16 04:28:32;;;;;;;7.23;4.57;;;;;;;14.89;82.78;100870.66;7384304;19;20893;-78
2023/09/16 04:31:00;;;;;;;8.60;4.97;;;;;;;14.85;82.84;100870.25;7380705;19;20364;-78
2023/09/16 04:33:33;;;;;;;7.05;4.72;;;;;;;14.83;82.91;100871.44;7380359;19;20352;-78
2023/09/16 04:36:00;;;;;;;6.93;4.63;;;;;;;14.82;83.00;100867.13;7383690;19;20904;-78
2023/09/16 04:38:28;;;;;;;7.55;4.65;;;;;;;14.81;82.99;100878.81;7381191;19;20368;-78
2023/09/16 04:40:57;;;;;;;6.40;4.60;;;;;;;14.79;82.99;100876.38;7381974;19;20880;-78
2023/09/16 04:43:25;;;;;;;8.57;4.82;;;;;;;14.77;83.08;100872.22;7379247;19;20356;-78
2023/09/16 04:45:54;;;;;;;6.57;4.97;;;;;;;14.79;83.10;100880.88;7382620;19;20372;-78
2023/09/16 04:48:32;;;;;;;7.40;5.13;;;;;;;14.79;83.32;100875.53;7379479;19;20372;-78
2023/09/16 04:51:00;;;;;;;9.82;5.28;;;;;;;14.78;82.95;100876.56;7378641;19;20440;-78
2023/09/16 04:53:26;;;;;;;8.90;5.10;;;;;;;14.78;83.37;100876.56;7381424;19;20353;-78
2023/09/16 04:56:01;;;;;;;7.28;5.57;;;;;;;14.80;83.50;100882.53;7382213;19;20372;-78
2023/09/16 04:58:31;;;;;;;8.30;5.22;;;;;;;14.82;83.52;100875.16;7377490;19;20361;-78
2023/09/16 05:00:59;;;;;;;6.55;4.70;;;;;;;14.81;83.17;100878.81;7379710;19;20356;-78
2023/09/16 05:03:27;;;;;;;6.88;4.47;;;;;;;14.82;83.39;100880.50;7378559;19;20362;-78
2023/09/16 05:05:54;;;;;;;7.70;4.93;;;;;;;14.81;83.33;100884.16;7379693;19;20397;-78
2023/09/16 05:08:25;;;;;;;8.38;5.10;;;;;;;14.81;83.37;100878.81;7382198;19;20348;-78
2023/09/16 05:10:55;;;;;;;8.27;5.55;;;;;;;14.84;83.41;100879.25;7379687;19;20785;-78
2023/09/16 05:13:22;;;;;;;10.90;6.22;;;;;;;14.87;83.42;100880.72;7379974;19;20883;-78
2023/09/16 05:15:50;;;;;;;8.52;6.47;;;;;;;14.89;83.37;100881.34;7376971;19;21264;-78
2023/09/16 05:18:18;;;;;;;16.00;10.75;;;;;;;14.92;83.18;100875.59;7378142;19;20340;-78
2023/09/16 05:20:46;;;;;;;10.48;7.88;;;;;;;14.94;83.32;100878.91;7382539;19;20356;-78
2023/09/16 05:23:13;;;;;;;13.43;8.50;;;;;;;14.96;83.00;100887.53;7378444;19;20440;-78
2023/09/16 05:25:48;;;;;;;10.60;7.03;;;;;;;14.97;83.51;100867.81;7381646;19;21717;-78
2023/09/16 05:28:22;;;;;;;10.73;5.93;;;;;;;15.02;83.17;100875.22;7381088;19;20543;-78
2023/09/16 05:30:49;;;;;;;8.00;5.53;;;;;;;15.08;83.60;100874.44;7378501;19;20364;-78
2023/09/16 05:33:16;;;;;;;9.05;5.60;;;;;;;15.13;83.14;100873.81;7377361;19;20393;-78
2023/09/16 05:35:45;;;;;;;8.82;5.80;;;;;;;15.17;83.05;100877.75;7378189;19;20357;-78
2023/09/16 05:38:12;;;;;;;8.07;4.80;;;;;;;15.22;83.10;100869.97;7380546;19;20735;-78
2023/09/16 05:40:38;;;;;;;8.05;5.45;;;;;;;15.28;83.05;100871.84;7380872;19;20352;-78
2023/09/16 05:43:06;;;;;;;7.53;5.35;;;;;;;15.35;83.14;100877.19;7378231;19;20455;-78
2023/09/16 05:45:33;;;;;;;7.38;5.10;;;;;;;15.42;82.75;100865.47;7379064;19;20691;-78
2023/09/16 05:48:02;;;;;;;8.13;5.00;;;;;;;15.47;82.62;100862.19;7384109;19;20876;-78
2023/09/16 05:50:34;;;;;;;9.63;5.32;;;;;;;15.52;82.76;100880.31;7381269;19;20367;-78
2023/09/16 05:53:03;;;;;;;8.77;5.70;;;;;;;15.56;82.57;100876.22;7384608;19;20795;-78
2023/09/16 05:55:30;;;;;;;7.88;5.15;;;;;;;15.63;82.54;100871.69;7385572;19;20389;-78
2023/09/16 05:57:57;;;;;;;9.25;5.30;;;;;;;15.70;82.45;100869.81;7386924;19;20385;-78
2023/09/16 06:00:24;;;;;;;7.95;5.15;;;;;;;15.81;82.09;100884.47;7385119;19;20893;-78
2023/09/16 06:02:51;;;;;;;8.07;5.00;;;;;;;15.89;82.24;100870.91;7385356;19;21517;-78
2023/09/16 06:05:18;;;;;;;8.10;5.20;;;;;;;15.99;81.84;100876.66;7382938;19;20365;-78
2023/09/16 06:07:46;;;;;;;8.23;5.72;;;;;;;16.12;81.80;100885.72;7386232;19;20368;-78
2023/09/16 06:10:13;;;;;;;8.35;5.75;;;;;;;16.22;81.51;100886.94;7367250;19;20758;-78
2023/09/16 06:12:39;;;;;;;8.00;5.63;;;;;;;16.31;81.06;100888.38;7382069;19;20372;-78
2023/09/16 06:15:07;;;;;;;12.45;5.75;;;;;;;16.43;80.58;100885.09;7380680;19;20373;-78
2023/09/16 06:17:35;;;;;;;8.83;6.10;;;;;;;16.52;80.45;100878.47;7384433;19;21666;-78
2023/09/16 06:20:02;;;;;;;9.48;5.85;;;;;;;16.62;80.22;100876.19;7388573;19;20679;-78
2023/09/16 06:22:30;;;;;;;10.73;5.73;;;;;;;16.68;79.69;100875.34;7382941;19;20383;-78
2023/09/16 06:24:56;;;;;;;8.15;5.88;;;;;;;16.79;79.57;100875.69;7380944;19;20367;-78
2023/09/16 06:27:23;;;;;;;10.95;5.95;;;;;;;16.87;79.23;100875.50;7380654;19;20423;-79
2023/09/16 06:29:52;;;;;;;10.18;6.18;;;;;;;16.95;79.45;100875.25;7376392;19;20376;-79
2023/09/16 06:32:20;;;;;;;7.75;5.75;;;;;;;17.06;78.85;100877.25;7385626;19;20437;-79
2023/09/16 06:34:51;;;;;;;9.25;5.68;;;;;;;17.17;78.83;100877.63;7382372;19;20341;-79
2023/09/16 06:37:17;;;;;;;9.05;5.90;;;;;;;17.25;78.64;100878.19;7380601;19;20364;-79
2023/09/16 06:39:46;;;;;;;8.23;5.97;;;;;;;17.35;78.37;100869.69;7381295;19;20386;-79
2023/09/16 06:42:15;;;;;;;11.18;6.28;;;;;;;17.48;78.03;100871.47;7378426;19;20352;-79
2023/09/16 06:44:42;;;;;;;10.20;6.00;;;;;;;17.57;77.52;100872.03;7381015;19;20376;-79
2023/09/16 06:47:09;;;;;;;8.23;5.97;;;;;;;17.65;77.24;100874.47;7378236;19;20368;-79
2023/09/16 06:49:36;;;;;;;8.50;5.63;;;;;;;17.77;76.98;100877.28;7381137;19;20868;-79
2023/09/16 06:52:03;;;;;;;10.75;5.80;;;;;;;17.84;76.52;100873.50;7379716;19;20371;-79
2023/09/16 06:54:30;;;;;;;12.43;5.90;;;;;;;17.93;76.20;100877.56;7382486;19;20388;-79
2023/09/16 06:56:59;;;;;;;9.07;5.20;;;;;;;18.03;75.92;100876.25;7380903;19;20910;-79
2023/09/16 06:59:27;;;;;;;7.53;5.93;;;;;;;18.10;75.65;100875.13;7386450;19;20472;-79
2023/09/16 07:01:53;;;;;;;9.95;7.43;;;;;;;18.21;75.72;100873.63;7383828;19;20723;-79
2023/09/16 07:04:20;;;;;;;15.32;11.40;;;;;;;18.34;75.88;100861.94;7384140;19;20386;-79
2023/09/16 07:06:47;;;;;;;13.23;8.88;;;;;;;18.46;75.25;100870.88;7381892;19;20377;-79
2023/09/16 07:09:15;;;;;;;10.52;7.05;;;;;;;18.57;74.65;100871.19;7388716;19;20376;-79
2023/09/16 07:11:44;;;;;;;12.43;7.95;;;;;;;18.71;74.92;100873.50;7384361;19;20373;-79
2023/09/16 07:14:11;;;;;;;9.68;5.97;;;;;;;18.83;74.38;100870.06;7383079;19;20369;-79
2023/09/16 07:16:40;;;;;;;7.60;5.03;;;;;;;18.94;74.29;100872.84;7387733;19;20420;-79
2023/09/16 07:19:07;;;;;;;7.27;5.33;;;;;;;19.07;73.60;100871.84;7385759;19;20444;-79
2023/09/16 07:21:34;;;;;;;7.43;4.75;;;;;;;19.11;73.12;100873.03;7385492;19;20389;-79
2023/09/16 07:24:01;;;;;;;8.10;4.47;;;;;;;19.39;78.68;100865.44;7384455;19;20364;-82
2023/09/16 07:26:29;;;;;;;8.82;3.83;;;;;;;19.85;79.11;100872.81;7384950;19;20372;-82
2023/09/16 07:28:57;;;;;;;6.43;3.33;;;;;;;20.27;76.42;100864.63;7387560;19;20377;-82
2023/09/16 07:31:24;;;;;;;7.70;4.05;;;;;;;20.68;75.02;100875.53;7385309;19;20448;-82
2023/09/16 07:33:51;;;;;;;11.75;4.47;;;;;;;21.00;73.12;100873.19;7385759;19;20413;-82
2023/09/16 07:36:18;;;;;;;9.20;3.97;;;;;;;21.24;70.68;100862.31;7387985;19;20364;-81
2023/09/16 07:38:45;;;;;;;7.18;4.03;;;;;;;21.47;70.12;100881.13;7383539;19;20360;-82
2023/09/16 07:41:12;;;;;;;7.65;4.97;;;;;;;21.55;66.79;100874.50;7383601;19;20373;-81
2023/09/16 07:43:39;;;;;;;11.35;5.72;;;;;;;21.48;65.83;100876.53;7386441;19;20713;-81
2023/09/16 07:46:06;;;;;;;7.60;5.32;;;;;;;21.41;65.10;100873.94;7385430;19;20375;-81
2023/09/16 07:48:33;;;;;;;7.63;5.30;;;;;;;21.36;64.96;100874.69;7384566;19;20361;-81
2023/09/16 07:51:00;;;;;;;8.98;5.40;;;;;;;21.29;65.04;100873.19;7386579;19;20377;-81
2023/09/16 07:53:27;;;;;;;9.32;5.38;;;;;;;21.19;64.97;100868.44;7385863;19;20378;-80
2023/09/16 07:55:54;;;;;;;8.05;5.53;;;;;;;21.15;65.11;100872.69;7388677;19;20434;-81
2023/09/16 07:58:20;;;;;;;9.98;5.38;;;;;;;21.11;64.81;100871.50;7386544;19;20380;-80
2023/09/16 08:00:48;;;;;;;7.57;5.35;;;;;;;21.10;65.47;100872.56;7388144;19;20369;-80
2023/09/16 08:03:15;;;;;;;8.80;5.15;;;;;;;21.15;64.88;100872.69;7405133;19;20408;-80
2023/09/16 08:05:43;;;;;;;9.63;5.65;;;;;;;21.17;65.20;100879.47;7399982;19;20368;-80
2023/09/16 08:08:10;;;;;;;8.38;5.30;;;;;;;21.24;65.39;100879.31;7388730;19;20336;-80
2023/09/16 08:10:37;;;;;;;8.75;5.50;;;;;;;21.32;65.54;100880.81;7384514;19;20910;-80
2023/09/16 08:13:04;;;;;;;7.22;5.32;;;;;;;21.37;65.05;100889.00;7381714;19;20434;-80
2023/09/16 08:15:31;;;;;;;7.00;4.88;;;;;;;21.41;65.26;100895.53;7383119;19;20361;-81
2023/09/16 08:17:58;;;;;;;8.80;5.82;;;;;;;21.49;65.06;100892.50;7384607;19;20364;-80
2023/09/16 08:20:25;;;;;;;7.28;5.45;;;;;;;21.55;64.14;100888.81;7382618;19;20361;-80
2023/09/16 08:22:51;;;;;;;6.57;4.35;;;;;;;21.69;65.54;100880.41;7385356;19;20764;-81
2023/09/16 08:25:19;;;;;;;7.10;3.97;;;;;;;21.92;65.38;100876.72;7382428;19;20364;-81
2023/09/16 08:27:46;;;;;;;6.25;4.20;;;;;;;22.15;64.72;100889.25;7386093;19;20719;-81
2023/09/16 08:30:13;;;;;;;6.00;3.70;;;;;;;22.33;65.21;100880.88;7383021;19;20367;-81
2023/09/16 08:32:39;;;;;;;6.75;4.30;;;;;;;22.59;64.72;100873.13;7386604;19;20689;-81
2023/09/16 08:35:07;;;;;;;5.78;3.90;;;;;;;22.81;63.45;100878.53;7384722;19;20382;-81
2023/09/16 08:37:35;;;;;;;7.07;4.13;;;;;;;23.00;62.88;100873.63;7387163;19;20361;-81
2023/09/16 08:40:03;;;;;;;8.00;4.45;;;;;;;23.24;62.71;100878.78;7382436;19;20386;-81
2023/09/16 08:42:43;;;;;;;8.27;4.03;;;;;;;23.42;60.55;100873.00;7386033;19;20706;-81
2023/09/16 08:45:14;;;;;;;7.40;3.97;;;;;;;23.58;61.12;100869.34;7385628;19;20365;-81
2023/09/16 08:47:55;;;;;;;7.28;4.13;;;;;;;23.79;60.37;100870.38;7381970;19;20360;-80
2023/09/16 08:50:22;;;;;;;7.53;4.00;;;;;;;24.05;60.04;100880.59;7384038;19;20876;-81
2023/09/16 08:52:50;;;;;;;6.75;3.70;;;;;;;24.19;59.11;100874.44;7384097;19;20948;-80
2023/09/16 08:55:18;;;;;;;5.80;3.55;;;;;;;24.25;59.00;100874.47;7379377;19;20364;-81
2023/09/16 08:58:05;;;;;;;5.87;4.07;;;;;;;24.37;58.75;100870.47;7380397;19;20406;-81
2023/09/16 09:00:32;;;;;;;5.50;3.60;;;;;;;24.46;58.26;100873.53;7381445;19;20716;-81
2023/09/16 09:02:59;;;;;;;6.43;3.33;;;;;;;24.59;58.21;100869.56;7377446;19;20372;-81
2023/09/16 09:05:28;;;;;;;5.57;3.42;;;;;;;24.71;57.83;100862.00;7384715;19;20366;-81
2023/09/16 09:07:56;;;;;;;5.82;3.50;;;;;;;24.80;57.32;100863.13;7386040;19;20375;-81
2023/09/16 09:10:23;;;;;;;6.07;3.35;;;;;;;24.89;56.69;100865.31;7382806;19;20440;-81
2023/09/16 09:12:51;;;;;;;4.88;3.08;;;;;;;24.98;56.82;100869.16;7378549;19;20364;-81
2023/09/16 09:15:18;;;;;;;5.40;3.03;;;;;;;25.05;56.21;100868.88;7380624;19;20434;-81
2023/09/16 09:17:48;;;;;;;5.65;3.83;;;;;;;25.13;55.96;100860.22;7380695;19;20864;-81
2023/09/16 09:20:22;;;;;;;7.50;3.47;;;;;;;25.25;55.66;100866.25;7381435;19;20452;-80
2023/09/16 09:22:50;;;;;;;5.38;3.78;;;;;;;25.35;55.67;100863.56;7385317;19;20699;-81
2023/09/16 09:25:21;;;;;;;5.40;3.47;;;;;;;25.46;55.94;100867.09;7388300;19;20453;-81
2023/09/16 09:27:50;;;;;;;4.85;3.00;;;;;;;25.56;55.09;100866.28;7392089;19;20364;-81
2023/09/16 09:30:27;;;;;;;5.17;3.27;;;;;;;25.60;54.36;100865.47;7389340;19;20369;-81
2023/09/16 09:32:55;;;;;;;7.47;3.25;;;;;;;25.67;54.85;100861.66;7393751;19;20435;-81
2023/09/16 09:35:26;;;;;;;5.72;3.40;;;;;;;25.75;53.82;100870.06;7390041;19;20376;-81
2023/09/16 09:37:54;;;;;;;4.90;3.10;;;;;;;25.76;53.35;100868.19;7390697;19;20386;-81
2023/09/16 09:40:21;;;;;;;11.13;3.97;;;;;;;25.77;53.46;100859.75;7390221;19;20353;-81
2023/09/16 09:42:50;;;;;;;4.30;3.00;;;;;;;25.80;53.31;100864.66;7386464;19;20353;-82
2023/09/16 09:45:20;;;;;;;5.72;3.33;;;;;;;25.77;53.28;100865.19;7391031;19;20892;-81
2023/09/16 09:47:49;;;;;;;6.88;3.70;;;;;;;25.81;53.62;100870.91;7389691;19;20352;-82
2023/09/16 09:50:19;;;;;;;7.05;3.30;;;;;;;25.78;53.12;100872.25;7390562;19;20372;-81
2023/09/16 09:52:56;;;;;;;8.45;3.88;;;;;;;25.84;53.05;100864.91;7390868;19;20383;-81
2023/09/16 09:55:29;;;;;;;5.03;2.95;;;;;;;25.88;53.00;100868.72;7392117;19;20372;-81
2023/09/16 09:57:56;;;;;;;4.80;2.95;;;;;;;25.88;52.86;100860.56;7391449;19;20364;-81
2023/09/16 10:00:24;;;;;;;6.75;3.33;;;;;;;25.93;53.79;100860.59;7389783;19;20372;-81
2023/09/16 10:02:51;;;;;;;6.65;3.28;;;;;;;25.95;52.87;100855.72;7390951;19;20371;-82
2023/09/16 10:05:23;;;;;;;4.55;2.83;;;;;;;25.99;52.71;100848.63;7391617;19;20822;-81
2023/09/16 10:07:53;;;;;;;4.50;2.60;;;;;;;26.03;51.95;100852.44;7393403;19;20378;-82
2023/09/16 10:10:21;;;;;;;5.97;3.30;;;;;;;26.05;52.37;100838.53;7391314;19;20386;-82
2023/09/16 10:12:52;;;;;;;5.95;3.00;;;;;;;26.11;52.06;100842.88;7393670;19;20755;-80
2023/09/16 10:15:39;;;;;;;6.18;2.97;;;;;;;26.12;52.52;100841.81;7395082;19;20381;-80
2023/09/16 10:18:07;;;;;;;7.00;3.22;;;;;;;26.18;51.97;100838.00;7396747;19;20394;-81
2023/09/16 10:20:38;;;;;;;6.10;2.72;;;;;;;26.20;52.47;100845.84;7394630;19;20356;-81
2023/09/16 10:23:06;;;;;;;4.70;2.65;;;;;;;26.27;52.82;100840.97;7392463;19;20357;-81
2023/09/16 10:25:34;;;;;;;4.13;2.30;;;;;;;26.32;52.19;100846.38;7392843;19;20460;-81
2023/09/16 10:28:07;;;;;;;3.70;1.90;;;;;;;26.33;51.12;100839.84;7393178;19;20356;-80
2023/09/16 10:30:36;;;;;;;3.92;2.33;;;;;;;26.44;52.03;100836.00;7384525;19;20966;-83
2023/09/16 10:33:05;;;;;;;4.17;2.30;;;;;;;26.53;51.28;100838.16;7386141;19;20706;-83
2023/09/16 10:35:37;;;;;;;3.60;2.15;;;;;;;26.60;51.17;100836.75;7389591;19;20813;-83
2023/09/16 10:38:06;;;;;;;6.77;2.50;;;;;;;26.68;50.55;100834.56;7392297;19;20353;-83
2023/09/16 10:40:33;;;;;;;3.17;2.13;;;;;;;26.71;50.49;100829.38;7394938;19;20353;-83
2023/09/16 10:43:02;;;;;;;3.50;2.00;;;;;;;26.78;50.37;100824.44;7389346;19;20918;-84
2023/09/16 10:45:30;;;;;;;4.28;2.10;;;;;;;26.87;50.68;100827.38;7391073;19;20360;-84
2023/09/16 10:48:01;;;;;;;3.55;2.30;;;;;;;26.97;50.37;100823.81;7391355;19;20857;-84
2023/09/16 10:50:30;;;;;;;4.90;2.10;;;;;;;27.04;49.72;100821.56;7392509;19;20357;-83
2023/09/16 10:53:22;;;;;;;3.25;1.80;;;;;;;27.14;49.67;100826.97;7386297;19;20364;-83
2023/09/16 10:56:02;;;;;;;4.05;2.30;;;;;;;27.22;48.66;100822.81;7393733;19;20452;-83
2023/09/16 10:58:35;;;;;;;3.55;2.15;;;;;;;27.27;48.34;100819.28;7394621;19;20370;-83
2023/09/16 11:01:03;;;;;;;3.40;2.08;;;;;;;27.29;47.84;100820.63;7392732;19;20361;-83
2023/09/16 11:03:32;;;;;;;2.47;1.70;;;;;;;27.37;47.75;100811.00;7398138;19;20404;-85
2023/09/16 11:06:01;;;;;;;3.13;2.00;;;;;;;27.42;48.13;100811.78;7393561;19;20477;-84
2023/09/16 11:08:28;;;;;;;2.72;1.70;;;;;;;27.52;47.85;100815.50;7395299;19;21131;-85
2023/09/16 11:10:56;;;;;;;4.63;2.03;;;;;;;27.64;47.72;100813.22;7392004;19;20891;-84
2023/09/16 11:13:27;;;;;;;3.95;1.85;;;;;;;27.81;47.28;100812.78;7399532;19;20345;-83
2023/09/16 11:15:58;;;;;;;3.88;1.60;;;;;;;27.95;45.96;100802.88;7389440;19;20361;-83
2023/09/16 11:18:26;;;;;;;6.82;2.33;;;;;;;28.03;45.35;100801.41;7396330;19;20368;-83
2023/09/16 11:20:54;;;;;;;2.57;1.90;;;;;;;28.06;43.99;100803.56;7398120;19;20838;-83
2023/09/16 11:23:25;;;;;;;4.70;1.60;;;;;;;28.24;43.11;100804.72;7392894;19;20373;-84
2023/09/16 11:25:55;;;;;;;3.60;1.97;;;;;;;28.50;43.92;100801.69;7393443;19;20356;-82
2023/09/16 11:28:22;;;;;;;2.78;1.73;;;;;;;28.83;42.90;100794.44;7391328;19;20387;-83
2023/09/16 11:30:57;;;;;;;3.03;1.52;;;;;;;29.13;41.70;100800.56;7394705;19;20696;-82